Baltimore, Maryland
Current Conditions -  °F | °C
As of 10:54 AM on Sunday 21 Dec 2014 (Local Time) from KBWI Reporting Station
Broken Clouds Broken Clouds  
Wind Chill: 35°   Ceiling: 6500
Heat Index: 35°   Visibility: 9mi
Dew Point: 22°   Wind: 0mph
Humidity: 59%   Direction: NA
Pressure: 30.35"   Gusts: NA
Location:  39.29°N, 76.61°W
Report Text: KBWI 211554Z 00000KT 9SM BKN065 BKN080 02/M06 A3035 RMK AO2 SLP279 T00171056
Loading
Personal Weather Stations






























Interactive Weather Map New forecast layout! Learn more

10-Day Weather Forecast

Advertisements
Track Severe Weather on mobile